sensor_id;sensor_type;location;lat;lon;timestamp;P1;durP1;ratioP1;P2;durP2;ratioP2
11582;SDS011;34299;50.820;4.548;2023-07-13T00:01:44;4.23;;;1.53;;
11582;SDS011;34299;50.820;4.548;2023-07-13T00:04:16;3.07;;;1.10;;
11582;SDS011;34299;50.820;4.548;2023-07-13T00:06:46;2.97;;;1.30;;
11582;SDS011;34299;50.820;4.548;2023-07-13T00:09:13;4.73;;;1.40;;
11582;SDS011;34299;50.820;4.548;2023-07-13T00:11:41;3.43;;;1.87;;
11582;SDS011;34299;50.820;4.548;2023-07-13T00:14:09;3.47;;;1.43;;
11582;SDS011;34299;50.820;4.548;2023-07-13T00:16:37;4.13;;;1.60;;
11582;SDS011;34299;50.820;4.548;2023-07-13T00:19:05;4.67;;;1.77;;
11582;SDS011;34299;50.820;4.548;2023-07-13T00:21:34;6.30;;;1.60;;
11582;SDS011;34299;50.820;4.548;2023-07-13T00:24:00;6.93;;;2.17;;
11582;SDS011;34299;50.820;4.548;2023-07-13T00:26:28;4.73;;;1.57;;
11582;SDS011;34299;50.820;4.548;2023-07-13T00:28:55;7.67;;;1.87;;
11582;SDS011;34299;50.820;4.548;2023-07-13T00:31:21;5.90;;;1.90;;
11582;SDS011;34299;50.820;4.548;2023-07-13T00:33:49;4.90;;;1.93;;
11582;SDS011;34299;50.820;4.548;2023-07-13T00:36:16;3.20;;;1.70;;
11582;SDS011;34299;50.820;4.548;2023-07-13T00:38:44;3.07;;;1.67;;
11582;SDS011;34299;50.820;4.548;2023-07-13T00:41:12;5.50;;;1.97;;
11582;SDS011;34299;50.820;4.548;2023-07-13T00:43:40;3.73;;;1.57;;
11582;SDS011;34299;50.820;4.548;2023-07-13T00:46:15;2.53;;;1.20;;
11582;SDS011;34299;50.820;4.548;2023-07-13T00:48:45;2.10;;;1.50;;
11582;SDS011;34299;50.820;4.548;2023-07-13T00:51:16;6.23;;;2.10;;
11582;SDS011;34299;50.820;4.548;2023-07-13T00:53:49;5.90;;;1.93;;
11582;SDS011;34299;50.820;4.548;2023-07-13T00:56:17;5.53;;;1.17;;
11582;SDS011;34299;50.820;4.548;2023-07-13T00:58:44;5.20;;;1.60;;
11582;SDS011;34299;50.820;4.548;2023-07-13T01:01:12;10.70;;;1.90;;
11582;SDS011;34299;50.820;4.548;2023-07-13T01:03:39;5.50;;;1.77;;
11582;SDS011;34299;50.820;4.548;2023-07-13T01:06:06;3.47;;;1.47;;
11582;SDS011;34299;50.820;4.548;2023-07-13T01:08:35;5.00;;;1.57;;
11582;SDS011;34299;50.820;4.548;2023-07-13T01:11:03;2.80;;;1.40;;
11582;SDS011;34299;50.820;4.548;2023-07-13T01:13:30;3.73;;;1.50;;
11582;SDS011;34299;50.820;4.548;2023-07-13T01:15:58;6.57;;;1.83;;
11582;SDS011;34299;50.820;4.548;2023-07-13T01:18:30;7.80;;;1.80;;
11582;SDS011;34299;50.820;4.548;2023-07-13T01:21:01;5.80;;;1.23;;
11582;SDS011;34299;50.820;4.548;2023-07-13T01:23:30;1.63;;;1.50;;
11582;SDS011;34299;50.820;4.548;2023-07-13T01:25:58;5.47;;;1.77;;
11582;SDS011;34299;50.820;4.548;2023-07-13T01:28:26;4.63;;;1.50;;
11582;SDS011;34299;50.820;4.548;2023-07-13T01:30:54;3.70;;;1.93;;
11582;SDS011;34299;50.820;4.548;2023-07-13T01:33:25;5.87;;;1.70;;
11582;SDS011;34299;50.820;4.548;2023-07-13T01:35:52;2.60;;;1.53;;
11582;SDS011;34299;50.820;4.548;2023-07-13T01:38:24;7.13;;;1.67;;
11582;SDS011;34299;50.820;4.548;2023-07-13T01:40:52;5.40;;;1.83;;
11582;SDS011;34299;50.820;4.548;2023-07-13T01:43:19;4.93;;;1.73;;
11582;SDS011;34299;50.820;4.548;2023-07-13T01:45:46;2.97;;;1.60;;
11582;SDS011;34299;50.820;4.548;2023-07-13T01:48:13;3.00;;;1.53;;
11582;SDS011;34299;50.820;4.548;2023-07-13T01:50:40;1.30;;;1.20;;
11582;SDS011;34299;50.820;4.548;2023-07-13T01:53:07;2.67;;;1.37;;
11582;SDS011;34299;50.820;4.548;2023-07-13T01:55:37;5.67;;;1.63;;
11582;SDS011;34299;50.820;4.548;2023-07-13T01:58:05;5.80;;;1.93;;
11582;SDS011;34299;50.820;4.548;2023-07-13T02:00:32;4.03;;;1.63;;
11582;SDS011;34299;50.820;4.548;2023-07-13T02:02:59;4.27;;;2.00;;
11582;SDS011;34299;50.820;4.548;2023-07-13T02:05:26;6.70;;;1.70;;
11582;SDS011;34299;50.820;4.548;2023-07-13T02:07:53;7.10;;;2.40;;
11582;SDS011;34299;50.820;4.548;2023-07-13T02:10:20;2.83;;;1.60;;
11582;SDS011;34299;50.820;4.548;2023-07-13T02:12:49;9.20;;;2.37;;
11582;SDS011;34299;50.820;4.548;2023-07-13T02:15:17;5.87;;;1.73;;
11582;SDS011;34299;50.820;4.548;2023-07-13T02:17:44;6.23;;;2.10;;
11582;SDS011;34299;50.820;4.548;2023-07-13T02:20:11;4.43;;;2.07;;
11582;SDS011;34299;50.820;4.548;2023-07-13T02:22:38;7.53;;;2.50;;
11582;SDS011;34299;50.820;4.548;2023-07-13T02:25:05;9.10;;;2.60;;
11582;SDS011;34299;50.820;4.548;2023-07-13T02:27:32;8.07;;;2.20;;
11582;SDS011;34299;50.820;4.548;2023-07-13T02:30:01;7.27;;;2.03;;
11582;SDS011;34299;50.820;4.548;2023-07-13T02:32:28;5.93;;;2.60;;
11582;SDS011;34299;50.820;4.548;2023-07-13T02:34:55;6.03;;;2.30;;
11582;SDS011;34299;50.820;4.548;2023-07-13T02:37:22;11.67;;;2.17;;
11582;SDS011;34299;50.820;4.548;2023-07-13T02:39:49;8.07;;;2.30;;
11582;SDS011;34299;50.820;4.548;2023-07-13T02:42:16;8.57;;;2.23;;
11582;SDS011;34299;50.820;4.548;2023-07-13T02:44:43;8.30;;;2.43;;
11582;SDS011;34299;50.820;4.548;2023-07-13T02:47:11;6.53;;;2.13;;
11582;SDS011;34299;50.820;4.548;2023-07-13T02:49:39;5.30;;;2.17;;
11582;SDS011;34299;50.820;4.548;2023-07-13T02:52:06;10.53;;;4.50;;
11582;SDS011;34299;50.820;4.548;2023-07-13T02:54:33;6.27;;;2.40;;
11582;SDS011;34299;50.820;4.548;2023-07-13T02:57:01;5.53;;;2.00;;
11582;SDS011;34299;50.820;4.548;2023-07-13T02:59:28;4.13;;;2.40;;
11582;SDS011;34299;50.820;4.548;2023-07-13T03:01:55;6.33;;;2.20;;
11582;SDS011;34299;50.820;4.548;2023-07-13T03:04:23;5.20;;;2.37;;
11582;SDS011;34299;50.820;4.548;2023-07-13T03:06:50;5.07;;;2.10;;
11582;SDS011;34299;50.820;4.548;2023-07-13T03:09:17;8.37;;;2.07;;
11582;SDS011;34299;50.820;4.548;2023-07-13T03:11:44;5.73;;;2.87;;
11582;SDS011;34299;50.820;4.548;2023-07-13T03:14:11;5.13;;;2.80;;
11582;SDS011;34299;50.820;4.548;2023-07-13T03:16:38;8.50;;;2.90;;
11582;SDS011;34299;50.820;4.548;2023-07-13T03:19:05;4.60;;;2.27;;
11582;SDS011;34299;50.820;4.548;2023-07-13T03:21:33;9.10;;;3.13;;
11582;SDS011;34299;50.820;4.548;2023-07-13T03:24:00;6.40;;;2.23;;
11582;SDS011;34299;50.820;4.548;2023-07-13T03:26:27;5.23;;;2.33;;
11582;SDS011;34299;50.820;4.548;2023-07-13T03:28:54;5.03;;;2.53;;
11582;SDS011;34299;50.820;4.548;2023-07-13T03:31:22;4.33;;;2.13;;
11582;SDS011;34299;50.820;4.548;2023-07-13T03:33:50;5.77;;;2.60;;
11582;SDS011;34299;50.820;4.548;2023-07-13T03:36:18;9.63;;;3.17;;
11582;SDS011;34299;50.820;4.548;2023-07-13T03:38:49;7.40;;;2.80;;
11582;SDS011;34299;50.820;4.548;2023-07-13T03:41:18;7.03;;;2.30;;
11582;SDS011;34299;50.820;4.548;2023-07-13T03:43:45;8.27;;;2.60;;
11582;SDS011;34299;50.820;4.548;2023-07-13T03:46:13;5.57;;;2.00;;
11582;SDS011;34299;50.820;4.548;2023-07-13T03:48:40;4.07;;;2.00;;
11582;SDS011;34299;50.820;4.548;2023-07-13T03:51:09;4.97;;;1.63;;
11582;SDS011;34299;50.820;4.548;2023-07-13T03:53:38;4.83;;;1.60;;
11582;SDS011;34299;50.820;4.548;2023-07-13T03:56:08;6.67;;;2.73;;
11582;SDS011;34299;50.820;4.548;2023-07-13T03:58:37;5.33;;;2.60;;
11582;SDS011;34299;50.820;4.548;2023-07-13T04:01:05;8.13;;;2.40;;
11582;SDS011;34299;50.820;4.548;2023-07-13T04:03:34;12.37;;;2.70;;
11582;SDS011;34299;50.820;4.548;2023-07-13T04:06:02;7.00;;;1.93;;
11582;SDS011;34299;50.820;4.548;2023-07-13T04:08:31;5.30;;;2.00;;
11582;SDS011;34299;50.820;4.548;2023-07-13T04:10:59;11.93;;;2.37;;
11582;SDS011;34299;50.820;4.548;2023-07-13T04:13:28;6.17;;;2.30;;
11582;SDS011;34299;50.820;4.548;2023-07-13T04:15:56;10.20;;;2.23;;
11582;SDS011;34299;50.820;4.548;2023-07-13T04:18:23;5.67;;;2.07;;
11582;SDS011;34299;50.820;4.548;2023-07-13T04:20:50;3.80;;;1.40;;
11582;SDS011;34299;50.820;4.548;2023-07-13T04:23:17;6.73;;;2.40;;
11582;SDS011;34299;50.820;4.548;2023-07-13T04:25:45;6.00;;;2.33;;
11582;SDS011;34299;50.820;4.548;2023-07-13T04:28:14;5.70;;;2.13;;
11582;SDS011;34299;50.820;4.548;2023-07-13T04:30:44;9.63;;;2.30;;
11582;SDS011;34299;50.820;4.548;2023-07-13T04:33:11;6.13;;;2.20;;
11582;SDS011;34299;50.820;4.548;2023-07-13T04:35:38;6.07;;;1.90;;
11582;SDS011;34299;50.820;4.548;2023-07-13T04:38:05;4.47;;;2.33;;
11582;SDS011;34299;50.820;4.548;2023-07-13T04:40:32;4.23;;;2.07;;
11582;SDS011;34299;50.820;4.548;2023-07-13T04:42:59;6.70;;;2.10;;
11582;SDS011;34299;50.820;4.548;2023-07-13T04:45:26;7.67;;;2.50;;
11582;SDS011;34299;50.820;4.548;2023-07-13T04:47:54;6.07;;;1.83;;
11582;SDS011;34299;50.820;4.548;2023-07-13T04:50:21;4.87;;;1.83;;
11582;SDS011;34299;50.820;4.548;2023-07-13T04:52:49;9.93;;;2.10;;
11582;SDS011;34299;50.820;4.548;2023-07-13T04:55:16;5.13;;;1.60;;
11582;SDS011;34299;50.820;4.548;2023-07-13T04:57:43;9.50;;;3.30;;
11582;SDS011;34299;50.820;4.548;2023-07-13T05:00:11;5.80;;;2.40;;
11582;SDS011;34299;50.820;4.548;2023-07-13T05:02:41;5.60;;;2.80;;
11582;SDS011;34299;50.820;4.548;2023-07-13T05:05:11;8.50;;;2.93;;
11582;SDS011;34299;50.820;4.548;2023-07-13T05:07:38;7.57;;;2.37;;
11582;SDS011;34299;50.820;4.548;2023-07-13T05:10:06;8.77;;;2.93;;
11582;SDS011;34299;50.820;4.548;2023-07-13T05:12:34;10.40;;;2.53;;
11582;SDS011;34299;50.820;4.548;2023-07-13T05:15:01;6.40;;;1.90;;
11582;SDS011;34299;50.820;4.548;2023-07-13T05:17:28;7.27;;;2.60;;
11582;SDS011;34299;50.820;4.548;2023-07-13T05:19:55;10.67;;;2.77;;
11582;SDS011;34299;50.820;4.548;2023-07-13T05:22:23;10.23;;;2.03;;
11582;SDS011;34299;50.820;4.548;2023-07-13T05:24:50;13.03;;;3.23;;
11582;SDS011;34299;50.820;4.548;2023-07-13T05:27:17;3.80;;;2.00;;
11582;SDS011;34299;50.820;4.548;2023-07-13T05:29:44;4.80;;;1.93;;
11582;SDS011;34299;50.820;4.548;2023-07-13T05:32:11;7.03;;;2.30;;
11582;SDS011;34299;50.820;4.548;2023-07-13T05:34:38;5.93;;;2.20;;
11582;SDS011;34299;50.820;4.548;2023-07-13T05:37:05;6.37;;;2.27;;
11582;SDS011;34299;50.820;4.548;2023-07-13T05:39:33;7.17;;;2.50;;
11582;SDS011;34299;50.820;4.548;2023-07-13T05:42:01;11.30;;;2.47;;
11582;SDS011;34299;50.820;4.548;2023-07-13T05:44:28;5.00;;;2.27;;
11582;SDS011;34299;50.820;4.548;2023-07-13T05:46:55;9.33;;;2.80;;
11582;SDS011;34299;50.820;4.548;2023-07-13T05:49:22;5.63;;;1.93;;
11582;SDS011;34299;50.820;4.548;2023-07-13T05:51:49;5.80;;;2.33;;
11582;SDS011;34299;50.820;4.548;2023-07-13T05:54:16;9.27;;;2.00;;
11582;SDS011;34299;50.820;4.548;2023-07-13T05:56:44;9.67;;;2.60;;
11582;SDS011;34299;50.820;4.548;2023-07-13T05:59:11;4.73;;;2.03;;
11582;SDS011;34299;50.820;4.548;2023-07-13T06:01:38;9.83;;;2.80;;
11582;SDS011;34299;50.820;4.548;2023-07-13T06:04:05;9.53;;;2.47;;
11582;SDS011;34299;50.820;4.548;2023-07-13T06:06:32;12.03;;;2.53;;
11582;SDS011;34299;50.820;4.548;2023-07-13T06:09:00;9.13;;;2.70;;
11582;SDS011;34299;50.820;4.548;2023-07-13T06:11:27;9.60;;;2.67;;
11582;SDS011;34299;50.820;4.548;2023-07-13T06:13:56;8.67;;;2.60;;
11582;SDS011;34299;50.820;4.548;2023-07-13T06:16:23;8.90;;;2.40;;
11582;SDS011;34299;50.820;4.548;2023-07-13T06:18:50;5.47;;;2.33;;
11582;SDS011;34299;50.820;4.548;2023-07-13T06:21:18;6.43;;;2.30;;
11582;SDS011;34299;50.820;4.548;2023-07-13T06:23:48;5.23;;;2.43;;
11582;SDS011;34299;50.820;4.548;2023-07-13T06:26:16;5.47;;;2.40;;
11582;SDS011;34299;50.820;4.548;2023-07-13T06:28:44;9.10;;;3.17;;
11582;SDS011;34299;50.820;4.548;2023-07-13T06:31:13;7.37;;;2.50;;
11582;SDS011;34299;50.820;4.548;2023-07-13T06:33:41;5.73;;;2.33;;
11582;SDS011;34299;50.820;4.548;2023-07-13T06:36:09;7.37;;;2.70;;
11582;SDS011;34299;50.820;4.548;2023-07-13T06:38:36;6.60;;;2.70;;
11582;SDS011;34299;50.820;4.548;2023-07-13T06:41:03;11.50;;;3.20;;
11582;SDS011;34299;50.820;4.548;2023-07-13T06:43:31;5.93;;;2.37;;
11582;SDS011;34299;50.820;4.548;2023-07-13T06:45:58;5.67;;;2.80;;
11582;SDS011;34299;50.820;4.548;2023-07-13T06:48:27;6.43;;;3.13;;
11582;SDS011;34299;50.820;4.548;2023-07-13T06:50:54;7.10;;;2.70;;
11582;SDS011;34299;50.820;4.548;2023-07-13T06:53:21;4.43;;;2.20;;
11582;SDS011;34299;50.820;4.548;2023-07-13T06:55:49;6.97;;;2.00;;
11582;SDS011;34299;50.820;4.548;2023-07-13T06:58:17;3.83;;;2.13;;
11582;SDS011;34299;50.820;4.548;2023-07-13T07:00:44;6.47;;;2.63;;
11582;SDS011;34299;50.820;4.548;2023-07-13T07:03:12;5.73;;;2.90;;
11582;SDS011;34299;50.820;4.548;2023-07-13T07:05:40;11.63;;;3.27;;
11582;SDS011;34299;50.820;4.548;2023-07-13T07:08:07;4.63;;;2.43;;
11582;SDS011;34299;50.820;4.548;2023-07-13T07:10:34;6.63;;;2.07;;
11582;SDS011;34299;50.820;4.548;2023-07-13T07:13:01;8.03;;;3.00;;
11582;SDS011;34299;50.820;4.548;2023-07-13T07:15:29;5.70;;;1.80;;
11582;SDS011;34299;50.820;4.548;2023-07-13T07:17:56;8.60;;;2.57;;
11582;SDS011;34299;50.820;4.548;2023-07-13T07:20:24;6.70;;;2.90;;
11582;SDS011;34299;50.820;4.548;2023-07-13T07:22:53;5.97;;;2.43;;
11582;SDS011;34299;50.820;4.548;2023-07-13T07:25:20;4.37;;;2.77;;
11582;SDS011;34299;50.820;4.548;2023-07-13T07:27:47;7.07;;;2.37;;
11582;SDS011;34299;50.820;4.548;2023-07-13T07:30:15;4.93;;;2.20;;
11582;SDS011;34299;50.820;4.548;2023-07-13T07:32:42;7.50;;;3.10;;
11582;SDS011;34299;50.820;4.548;2023-07-13T07:35:09;7.23;;;2.50;;
11582;SDS011;34299;50.820;4.548;2023-07-13T07:37:36;6.93;;;2.30;;
11582;SDS011;34299;50.820;4.548;2023-07-13T07:40:06;7.30;;;2.17;;
11582;SDS011;34299;50.820;4.548;2023-07-13T07:42:33;5.23;;;2.60;;
11582;SDS011;34299;50.820;4.548;2023-07-13T07:45:00;10.47;;;2.63;;
11582;SDS011;34299;50.820;4.548;2023-07-13T07:47:28;10.50;;;3.17;;
11582;SDS011;34299;50.820;4.548;2023-07-13T07:49:55;4.93;;;2.00;;
11582;SDS011;34299;50.820;4.548;2023-07-13T07:52:22;5.30;;;2.10;;
11582;SDS011;34299;50.820;4.548;2023-07-13T07:54:49;6.43;;;2.40;;
11582;SDS011;34299;50.820;4.548;2023-07-13T07:57:18;5.20;;;2.17;;
11582;SDS011;34299;50.820;4.548;2023-07-13T07:59:45;6.00;;;2.27;;
11582;SDS011;34299;50.820;4.548;2023-07-13T08:02:13;3.73;;;1.80;;
11582;SDS011;34299;50.820;4.548;2023-07-13T08:04:40;7.43;;;2.00;;
11582;SDS011;34299;50.820;4.548;2023-07-13T08:07:08;9.57;;;2.60;;
11582;SDS011;34299;50.820;4.548;2023-07-13T08:09:36;8.57;;;2.70;;
11582;SDS011;34299;50.820;4.548;2023-07-13T08:12:03;5.33;;;2.23;;
11582;SDS011;34299;50.820;4.548;2023-07-13T08:14:32;7.30;;;2.53;;
11582;SDS011;34299;50.820;4.548;2023-07-13T08:16:59;5.07;;;2.37;;
11582;SDS011;34299;50.820;4.548;2023-07-13T08:19:27;4.90;;;2.03;;
11582;SDS011;34299;50.820;4.548;2023-07-13T08:21:54;3.63;;;2.13;;
11582;SDS011;34299;50.820;4.548;2023-07-13T08:24:21;10.33;;;3.50;;
11582;SDS011;34299;50.820;4.548;2023-07-13T08:26:48;7.23;;;2.70;;
11582;SDS011;34299;50.820;4.548;2023-07-13T08:29:17;5.50;;;2.33;;
11582;SDS011;34299;50.820;4.548;2023-07-13T08:31:46;5.03;;;2.00;;
11582;SDS011;34299;50.820;4.548;2023-07-13T08:34:13;7.33;;;2.60;;
11582;SDS011;34299;50.820;4.548;2023-07-13T08:36:41;8.10;;;2.30;;
11582;SDS011;34299;50.820;4.548;2023-07-13T08:39:08;8.53;;;2.53;;
11582;SDS011;34299;50.820;4.548;2023-07-13T08:41:35;3.47;;;1.97;;
11582;SDS011;34299;50.820;4.548;2023-07-13T08:44:03;4.53;;;2.03;;
11582;SDS011;34299;50.820;4.548;2023-07-13T08:46:42;3.27;;;1.73;;
11582;SDS011;34299;50.820;4.548;2023-07-13T08:49:12;5.90;;;1.87;;
11582;SDS011;34299;50.820;4.548;2023-07-13T08:51:41;7.90;;;2.47;;
11582;SDS011;34299;50.820;4.548;2023-07-13T08:54:15;4.73;;;2.00;;
11582;SDS011;34299;50.820;4.548;2023-07-13T08:56:46;3.70;;;1.90;;
11582;SDS011;34299;50.820;4.548;2023-07-13T08:59:15;4.07;;;2.00;;
11582;SDS011;34299;50.820;4.548;2023-07-13T09:04:52;6.13;;;1.70;;
11582;SDS011;34299;50.820;4.548;2023-07-13T09:07:24;6.87;;;1.87;;
11582;SDS011;34299;50.820;4.548;2023-07-13T09:09:56;4.77;;;1.63;;
11582;SDS011;34299;50.820;4.548;2023-07-13T09:12:26;4.10;;;1.87;;
11582;SDS011;34299;50.820;4.548;2023-07-13T09:14:55;5.60;;;1.73;;
11582;SDS011;34299;50.820;4.548;2023-07-13T09:17:25;2.57;;;1.90;;
11582;SDS011;34299;50.820;4.548;2023-07-13T09:19:56;5.40;;;2.00;;
11582;SDS011;34299;50.820;4.548;2023-07-13T09:22:29;4.80;;;2.03;;
11582;SDS011;34299;50.820;4.548;2023-07-13T09:25:00;3.53;;;1.70;;
11582;SDS011;34299;50.820;4.548;2023-07-13T09:27:33;4.90;;;2.20;;
11582;SDS011;34299;50.820;4.548;2023-07-13T09:30:15;5.13;;;1.90;;
11582;SDS011;34299;50.820;4.548;2023-07-13T09:32:50;5.60;;;1.80;;
11582;SDS011;34299;50.820;4.548;2023-07-13T09:35:20;3.63;;;1.90;;
11582;SDS011;34299;50.820;4.548;2023-07-13T09:37:48;5.53;;;2.30;;
11582;SDS011;34299;50.820;4.548;2023-07-13T09:40:17;4.20;;;1.70;;
11582;SDS011;34299;50.820;4.548;2023-07-13T09:42:51;4.33;;;1.70;;
11582;SDS011;34299;50.820;4.548;2023-07-13T09:45:26;3.77;;;1.90;;
11582;SDS011;34299;50.820;4.548;2023-07-13T09:47:58;5.23;;;1.73;;
11582;SDS011;34299;50.820;4.548;2023-07-13T09:50:27;4.73;;;1.77;;
11582;SDS011;34299;50.820;4.548;2023-07-13T09:52:55;3.37;;;1.53;;
11582;SDS011;34299;50.820;4.548;2023-07-13T09:55:29;3.27;;;1.70;;
11582;SDS011;34299;50.820;4.548;2023-07-13T09:57:56;4.10;;;1.60;;
11582;SDS011;34299;50.820;4.548;2023-07-13T10:00:25;8.27;;;2.10;;
11582;SDS011;34299;50.820;4.548;2023-07-13T10:02:59;5.83;;;2.20;;
11582;SDS011;34299;50.820;4.548;2023-07-13T10:05:30;4.47;;;1.70;;
11582;SDS011;34299;50.820;4.548;2023-07-13T10:08:03;5.67;;;1.70;;
11582;SDS011;34299;50.820;4.548;2023-07-13T10:10:32;3.53;;;1.73;;
11582;SDS011;34299;50.820;4.548;2023-07-13T10:13:01;5.70;;;1.90;;
11582;SDS011;34299;50.820;4.548;2023-07-13T10:15:30;6.40;;;1.87;;
11582;SDS011;34299;50.820;4.548;2023-07-13T10:17:57;11.73;;;2.43;;
11582;SDS011;34299;50.820;4.548;2023-07-13T10:20:24;3.50;;;1.43;;
11582;SDS011;34299;50.820;4.548;2023-07-13T10:22:53;1.73;;;1.43;;
11582;SDS011;34299;50.820;4.548;2023-07-13T10:25:22;3.00;;;1.60;;
11582;SDS011;34299;50.820;4.548;2023-07-13T10:27:51;5.07;;;1.47;;
11582;SDS011;34299;50.820;4.548;2023-07-13T10:30:20;4.90;;;1.60;;
11582;SDS011;34299;50.820;4.548;2023-07-13T10:32:50;2.30;;;1.43;;
11582;SDS011;34299;50.820;4.548;2023-07-13T10:35:19;2.67;;;1.70;;
11582;SDS011;34299;50.820;4.548;2023-07-13T10:37:48;4.53;;;1.67;;
11582;SDS011;34299;50.820;4.548;2023-07-13T10:40:18;4.77;;;1.73;;
11582;SDS011;34299;50.820;4.548;2023-07-13T10:42:47;2.10;;;1.07;;
11582;SDS011;34299;50.820;4.548;2023-07-13T10:45:16;3.60;;;1.60;;
11582;SDS011;34299;50.820;4.548;2023-07-13T10:47:45;4.10;;;1.37;;
11582;SDS011;34299;50.820;4.548;2023-07-13T10:50:15;3.10;;;1.40;;
11582;SDS011;34299;50.820;4.548;2023-07-13T10:52:45;3.73;;;1.70;;
11582;SDS011;34299;50.820;4.548;2023-07-13T10:55:36;1.73;;;1.20;;
11582;SDS011;34299;50.820;4.548;2023-07-13T10:58:11;4.67;;;1.47;;
11582;SDS011;34299;50.820;4.548;2023-07-13T11:00:43;2.90;;;1.40;;
11582;SDS011;34299;50.820;4.548;2023-07-13T11:03:10;3.03;;;1.33;;
11582;SDS011;34299;50.820;4.548;2023-07-13T11:05:40;3.00;;;1.57;;
11582;SDS011;34299;50.820;4.548;2023-07-13T11:08:13;1.23;;;1.13;;
11582;SDS011;34299;50.820;4.548;2023-07-13T11:10:48;4.50;;;2.07;;
11582;SDS011;34299;50.820;4.548;2023-07-13T11:13:36;5.47;;;1.70;;
11582;SDS011;34299;50.820;4.548;2023-07-13T11:16:12;4.70;;;1.43;;
11582;SDS011;34299;50.820;4.548;2023-07-13T11:18:39;3.20;;;1.50;;
11582;SDS011;34299;50.820;4.548;2023-07-13T11:21:17;3.40;;;1.63;;
11582;SDS011;34299;50.820;4.548;2023-07-13T11:23:44;3.70;;;1.60;;
11582;SDS011;34299;50.820;4.548;2023-07-13T11:29:08;4.40;;;1.30;;
11582;SDS011;34299;50.820;4.548;2023-07-13T11:31:36;4.13;;;1.40;;
11582;SDS011;34299;50.820;4.548;2023-07-13T11:34:06;1.57;;;1.13;;
11582;SDS011;34299;50.820;4.548;2023-07-13T11:36:37;4.97;;;1.30;;
11582;SDS011;34299;50.820;4.548;2023-07-13T11:39:10;4.90;;;1.50;;
11582;SDS011;34299;50.820;4.548;2023-07-13T11:41:43;1.50;;;1.30;;
11582;SDS011;34299;50.820;4.548;2023-07-13T11:44:14;4.20;;;1.57;;
11582;SDS011;34299;50.820;4.548;2023-07-13T11:46:45;4.70;;;1.47;;
11582;SDS011;34299;50.820;4.548;2023-07-13T11:49:15;4.53;;;1.50;;
11582;SDS011;34299;50.820;4.548;2023-07-13T11:51:42;3.10;;;1.20;;
11582;SDS011;34299;50.820;4.548;2023-07-13T11:54:14;2.07;;;1.20;;
11582;SDS011;34299;50.820;4.548;2023-07-13T11:56:42;3.33;;;1.40;;
11582;SDS011;34299;50.820;4.548;2023-07-13T11:59:13;2.33;;;1.50;;
11582;SDS011;34299;50.820;4.548;2023-07-13T12:01:42;3.80;;;1.50;;
11582;SDS011;34299;50.820;4.548;2023-07-13T12:04:11;2.20;;;1.40;;
11582;SDS011;34299;50.820;4.548;2023-07-13T12:06:46;2.53;;;1.30;;
11582;SDS011;34299;50.820;4.548;2023-07-13T12:09:14;2.30;;;1.30;;
11582;SDS011;34299;50.820;4.548;2023-07-13T12:11:42;3.93;;;1.57;;
11582;SDS011;34299;50.820;4.548;2023-07-13T12:14:15;2.87;;;1.30;;
11582;SDS011;34299;50.820;4.548;2023-07-13T12:16:42;2.73;;;1.20;;
11582;SDS011;34299;50.820;4.548;2023-07-13T12:19:14;4.40;;;1.43;;
11582;SDS011;34299;50.820;4.548;2023-07-13T12:21:44;1.83;;;0.97;;
11582;SDS011;34299;50.820;4.548;2023-07-13T12:24:13;2.90;;;1.50;;
11582;SDS011;34299;50.820;4.548;2023-07-13T12:26:41;3.17;;;1.40;;
11582;SDS011;34299;50.820;4.548;2023-07-13T12:29:11;5.30;;;1.57;;
11582;SDS011;34299;50.820;4.548;2023-07-13T12:31:44;3.07;;;1.53;;
11582;SDS011;34299;50.820;4.548;2023-07-13T12:34:12;4.43;;;1.47;;
11582;SDS011;34299;50.820;4.548;2023-07-13T12:36:41;1.83;;;1.23;;
11582;SDS011;34299;50.820;4.548;2023-07-13T12:39:14;6.17;;;1.80;;
11582;SDS011;34299;50.820;4.548;2023-07-13T12:41:42;3.63;;;1.67;;
11582;SDS011;34299;50.820;4.548;2023-07-13T12:44:13;3.30;;;1.30;;
11582;SDS011;34299;50.820;4.548;2023-07-13T12:46:51;1.97;;;1.17;;
11582;SDS011;34299;50.820;4.548;2023-07-13T12:49:21;1.60;;;1.20;;
11582;SDS011;34299;50.820;4.548;2023-07-13T12:51:49;2.50;;;1.20;;
11582;SDS011;34299;50.820;4.548;2023-07-13T12:54:17;2.23;;;0.90;;
11582;SDS011;34299;50.820;4.548;2023-07-13T12:56:45;1.30;;;1.20;;
11582;SDS011;34299;50.820;4.548;2023-07-13T12:59:17;3.77;;;1.47;;
11582;SDS011;34299;50.820;4.548;2023-07-13T13:01:45;1.90;;;1.50;;
11582;SDS011;34299;50.820;4.548;2023-07-13T13:04:15;1.47;;;1.10;;
11582;SDS011;34299;50.820;4.548;2023-07-13T13:06:46;1.60;;;1.10;;
11582;SDS011;34299;50.820;4.548;2023-07-13T13:09:14;3.33;;;1.67;;
11582;SDS011;34299;50.820;4.548;2023-07-13T13:11:41;2.63;;;1.47;;
11582;SDS011;34299;50.820;4.548;2023-07-13T13:14:09;3.87;;;2.30;;
11582;SDS011;34299;50.820;4.548;2023-07-13T13:16:37;4.90;;;1.80;;
11582;SDS011;34299;50.820;4.548;2023-07-13T13:19:12;2.17;;;1.50;;
11582;SDS011;34299;50.820;4.548;2023-07-13T13:21:41;2.63;;;1.40;;
11582;SDS011;34299;50.820;4.548;2023-07-13T13:24:11;4.17;;;1.60;;
11582;SDS011;34299;50.820;4.548;2023-07-13T13:26:39;3.57;;;1.40;;
11582;SDS011;34299;50.820;4.548;2023-07-13T13:29:09;5.43;;;1.67;;
11582;SDS011;34299;50.820;4.548;2023-07-13T13:31:38;1.57;;;1.40;;
11582;SDS011;34299;50.820;4.548;2023-07-13T13:34:07;3.13;;;1.50;;
11582;SDS011;34299;50.820;4.548;2023-07-13T13:36:35;1.80;;;1.53;;
11582;SDS011;34299;50.820;4.548;2023-07-13T13:39:04;1.70;;;1.50;;
11582;SDS011;34299;50.820;4.548;2023-07-13T13:41:32;4.23;;;1.60;;
11582;SDS011;34299;50.820;4.548;2023-07-13T13:43:59;2.37;;;1.40;;
11582;SDS011;34299;50.820;4.548;2023-07-13T13:46:30;2.50;;;1.20;;
11582;SDS011;34299;50.820;4.548;2023-07-13T13:48:57;4.03;;;1.50;;
11582;SDS011;34299;50.820;4.548;2023-07-13T13:51:24;1.30;;;1.20;;
11582;SDS011;34299;50.820;4.548;2023-07-13T13:53:52;4.20;;;1.60;;
11582;SDS011;34299;50.820;4.548;2023-07-13T13:56:20;3.87;;;1.27;;
11582;SDS011;34299;50.820;4.548;2023-07-13T13:58:48;2.13;;;1.17;;
11582;SDS011;34299;50.820;4.548;2023-07-13T14:01:16;3.53;;;1.60;;
11582;SDS011;34299;50.820;4.548;2023-07-13T14:03:44;6.80;;;1.40;;
11582;SDS011;34299;50.820;4.548;2023-07-13T14:06:13;5.07;;;1.77;;
11582;SDS011;34299;50.820;4.548;2023-07-13T14:08:41;3.17;;;1.73;;
11582;SDS011;34299;50.820;4.548;2023-07-13T14:11:09;2.33;;;1.60;;
11582;SDS011;34299;50.820;4.548;2023-07-13T14:13:40;2.60;;;1.20;;
11582;SDS011;34299;50.820;4.548;2023-07-13T14:16:09;1.90;;;1.43;;
11582;SDS011;34299;50.820;4.548;2023-07-13T14:18:38;2.33;;;1.10;;
11582;SDS011;34299;50.820;4.548;2023-07-13T14:21:08;2.10;;;1.27;;
11582;SDS011;34299;50.820;4.548;2023-07-13T14:23:37;2.43;;;1.60;;
11582;SDS011;34299;50.820;4.548;2023-07-13T14:26:07;2.73;;;1.47;;
11582;SDS011;34299;50.820;4.548;2023-07-13T14:28:35;3.73;;;1.40;;
11582;SDS011;34299;50.820;4.548;2023-07-13T14:31:05;2.37;;;1.20;;
11582;SDS011;34299;50.820;4.548;2023-07-13T14:33:32;3.97;;;1.70;;
11582;SDS011;34299;50.820;4.548;2023-07-13T14:35:59;3.47;;;1.70;;
11582;SDS011;34299;50.820;4.548;2023-07-13T14:38:27;4.67;;;1.50;;
11582;SDS011;34299;50.820;4.548;2023-07-13T14:40:54;1.57;;;1.20;;
11582;SDS011;34299;50.820;4.548;2023-07-13T14:43:21;2.30;;;1.20;;
11582;SDS011;34299;50.820;4.548;2023-07-13T14:45:49;3.13;;;1.40;;
11582;SDS011;34299;50.820;4.548;2023-07-13T14:48:20;2.30;;;1.40;;
11582;SDS011;34299;50.820;4.548;2023-07-13T14:50:49;2.27;;;1.40;;
11582;SDS011;34299;50.820;4.548;2023-07-13T14:53:17;3.17;;;1.40;;
11582;SDS011;34299;50.820;4.548;2023-07-13T14:55:44;2.07;;;1.50;;
11582;SDS011;34299;50.820;4.548;2023-07-13T14:58:11;2.20;;;1.60;;
11582;SDS011;34299;50.820;4.548;2023-07-13T15:00:39;4.67;;;1.57;;
11582;SDS011;34299;50.820;4.548;2023-07-13T15:03:08;2.73;;;1.37;;